createdAt,value
2023-05-19T00:00:00.393Z,23.36
2023-05-19T00:01:00.478Z,23.36
2023-05-19T00:02:00.507Z,23.36
2023-05-19T00:03:00.651Z,23.35
2023-05-19T00:04:00.569Z,23.36
2023-05-19T00:05:00.617Z,23.35
2023-05-19T00:06:00.771Z,23.35
2023-05-19T00:07:00.756Z,23.35
2023-05-19T00:08:00.832Z,23.35
2023-05-19T00:09:00.872Z,23.35
2023-05-19T00:10:00.924Z,23.35
2023-05-19T00:11:00.995Z,23.35
2023-05-19T00:12:01.070Z,23.34
2023-05-19T00:13:01.108Z,23.35
2023-05-19T00:14:01.171Z,23.35
2023-05-19T00:15:01.273Z,23.35
2023-05-19T00:16:01.326Z,23.35
2023-05-19T00:17:01.353Z,23.34
2023-05-19T00:18:01.411Z,23.34
2023-05-19T00:19:01.499Z,23.34
2023-05-19T00:20:01.530Z,23.34
2023-05-19T00:21:01.619Z,23.34
2023-05-19T00:22:01.641Z,23.34
2023-05-19T00:23:01.697Z,23.34
2023-05-19T00:24:01.747Z,23.33
2023-05-19T00:25:01.848Z,23.33
2023-05-19T00:26:01.981Z,23.34
2023-05-19T00:27:01.945Z,23.34
2023-05-19T00:28:02.003Z,23.34
2023-05-19T00:29:02.062Z,23.34
2023-05-19T00:30:02.150Z,23.34
2023-05-19T00:31:02.181Z,23.33
2023-05-19T00:32:02.284Z,23.33
2023-05-19T00:33:02.380Z,23.33
2023-05-19T00:34:02.384Z,23.33
2023-05-19T00:35:02.446Z,23.32
2023-05-19T00:36:02.482Z,23.33
2023-05-19T00:37:02.551Z,23.33
2023-05-19T00:38:02.604Z,23.33
2023-05-19T00:39:02.679Z,23.33
2023-05-19T00:40:02.741Z,23.33
2023-05-19T00:41:02.797Z,23.33
2023-05-19T00:42:02.955Z,23.35
2023-05-19T00:43:02.931Z,23.33
2023-05-19T00:44:03.009Z,23.33
2023-05-19T00:45:03.037Z,23.33
2023-05-19T00:46:03.122Z,23.32
2023-05-19T00:47:03.221Z,23.32
2023-05-19T00:48:03.301Z,23.32
2023-05-19T00:49:03.278Z,23.32
2023-05-19T00:50:03.336Z,23.33
2023-05-19T00:51:03.422Z,23.32
2023-05-19T00:52:03.473Z,23.32
2023-05-19T00:53:03.545Z,23.32
2023-05-19T00:54:03.590Z,23.32
2023-05-19T00:55:03.635Z,23.32
2023-05-19T00:56:03.714Z,23.32
2023-05-19T00:57:03.761Z,23.33
2023-05-19T00:58:03.846Z,23.32
2023-05-19T00:59:03.899Z,23.32
2023-05-19T01:00:03.960Z,23.32
2023-05-19T01:01:04.820Z,23.32
2023-05-19T01:02:04.085Z,23.32
2023-05-19T01:03:04.202Z,23.32
2023-05-19T01:04:04.338Z,23.32
2023-05-19T01:05:04.271Z,23.31
2023-05-19T01:06:04.321Z,23.32
2023-05-19T01:07:04.382Z,23.32
2023-05-19T01:08:04.444Z,23.32
2023-05-19T01:09:04.480Z,23.31
2023-05-19T01:10:04.552Z,23.31
2023-05-19T01:11:04.636Z,23.32
2023-05-19T01:12:04.680Z,23.32
2023-05-19T01:13:04.743Z,23.32
2023-05-19T01:14:04.800Z,23.31
2023-05-19T01:15:04.857Z,23.31
2023-05-19T01:16:04.949Z,23.31
2023-05-19T01:17:04.986Z,23.31
2023-05-19T01:18:05.123Z,23.31
2023-05-19T01:19:05.132Z,23.31
2023-05-19T01:20:05.141Z,23.31
2023-05-19T01:21:05.207Z,23.31
2023-05-19T01:22:05.266Z,23.31
2023-05-19T01:23:05.339Z,23.31
2023-05-19T01:24:05.397Z,23.31
2023-05-19T01:25:05.452Z,23.30
2023-05-19T01:26:05.510Z,23.30
2023-05-19T01:27:05.667Z,23.30
2023-05-19T01:28:05.602Z,23.30
2023-05-19T01:29:05.679Z,23.30
2023-05-19T01:30:05.736Z,23.31
2023-05-19T01:31:05.778Z,23.30
2023-05-19T01:32:05.993Z,23.30
2023-05-19T01:33:05.927Z,23.30
2023-05-19T01:34:05.959Z,23.30
2023-05-19T01:35:06.019Z,23.30
2023-05-19T01:36:06.077Z,23.30
2023-05-19T01:37:06.150Z,23.30
2023-05-19T01:38:06.217Z,23.30
2023-05-19T01:39:06.252Z,23.30
2023-05-19T01:40:06.300Z,23.30
2023-05-19T01:41:06.384Z,23.30
2023-05-19T01:42:06.446Z,23.30
2023-05-19T01:43:06.500Z,23.30
2023-05-19T01:44:06.553Z,23.30
2023-05-19T01:45:06.620Z,23.29
2023-05-19T01:46:06.730Z,23.30
2023-05-19T01:47:06.730Z,23.30
2023-05-19T01:48:08.410Z,23.30
2023-05-19T01:49:06.845Z,23.30
2023-05-19T01:50:06.775Z,23.30
2023-05-19T01:51:06.820Z,23.30
2023-05-19T01:52:06.734Z,23.30
2023-05-19T01:53:06.742Z,23.29
2023-05-19T01:54:06.743Z,23.29
2023-05-19T01:55:06.722Z,23.30
2023-05-19T01:56:06.723Z,23.30
2023-05-19T01:57:06.725Z,23.30
2023-05-19T01:58:06.714Z,23.29
2023-05-19T01:59:06.703Z,23.29
2023-05-19T02:00:06.690Z,23.29
2023-05-19T02:01:06.729Z,23.29
2023-05-19T02:02:06.689Z,23.29
2023-05-19T02:03:06.705Z,23.29
2023-05-19T02:04:06.693Z,23.29
2023-05-19T02:05:06.652Z,23.29
2023-05-19T02:06:06.647Z,23.29
2023-05-19T02:07:06.641Z,23.29
2023-05-19T02:08:06.637Z,23.29
2023-05-19T02:09:06.635Z,23.29
2023-05-19T02:10:06.619Z,23.30
2023-05-19T02:11:06.714Z,23.29
2023-05-19T02:12:06.602Z,23.29
2023-05-19T02:13:06.591Z,23.28
2023-05-19T02:14:06.595Z,23.29
2023-05-19T02:15:06.630Z,23.29
2023-05-19T02:16:06.663Z,23.28
2023-05-19T02:17:06.570Z,23.29
2023-05-19T02:18:06.618Z,23.28
2023-05-19T02:19:06.619Z,23.28
2023-05-19T02:20:06.547Z,23.28
2023-05-19T02:21:06.604Z,23.28
2023-05-19T02:22:06.667Z,23.29
2023-05-19T02:23:06.728Z,23.28
2023-05-19T02:24:06.795Z,23.28
2023-05-19T02:25:06.850Z,23.27
2023-05-19T02:26:06.901Z,23.28
2023-05-19T02:27:06.963Z,23.29
2023-05-19T02:28:07.026Z,23.28
2023-05-19T02:29:07.082Z,23.28
2023-05-19T02:30:07.147Z,23.28
2023-05-19T02:31:07.180Z,23.28
2023-05-19T02:32:07.336Z,23.28
2023-05-19T02:33:07.422Z,23.28
2023-05-19T02:34:07.390Z,23.28
2023-05-19T02:35:07.437Z,23.28
2023-05-19T02:36:07.525Z,23.28
2023-05-19T02:37:07.584Z,23.28
2023-05-19T02:38:07.640Z,23.28
2023-05-19T02:39:07.679Z,23.28
2023-05-19T02:40:07.751Z,23.28
2023-05-19T02:41:07.819Z,23.28
2023-05-19T02:42:07.863Z,23.28
2023-05-19T02:43:07.941Z,23.27
2023-05-19T02:44:07.993Z,23.28
2023-05-19T02:45:08.056Z,23.27
2023-05-19T02:46:08.192Z,23.27
2023-05-19T02:47:08.167Z,23.27
2023-05-19T02:48:08.304Z,23.27
2023-05-19T02:49:08.324Z,23.27
2023-05-19T02:50:08.345Z,23.27
2023-05-19T02:51:08.418Z,23.27
2023-05-19T02:52:08.461Z,23.27
2023-05-19T02:53:08.529Z,23.27
2023-05-19T02:54:08.597Z,23.27
2023-05-19T02:55:08.771Z,23.26
2023-05-19T02:56:08.720Z,23.27
2023-05-19T02:57:08.790Z,23.27
2023-05-19T02:58:08.836Z,23.27
2023-05-19T02:59:08.921Z,23.27
2023-05-19T03:00:09.001Z,23.27
2023-05-19T03:01:09.054Z,23.27
2023-05-19T03:02:09.104Z,23.27
2023-05-19T03:03:09.234Z,23.26
2023-05-19T03:04:09.480Z,23.27
2023-05-19T03:05:09.311Z,23.26
2023-05-19T03:06:09.391Z,23.27
2023-05-19T03:07:09.424Z,23.27
2023-05-19T03:08:09.473Z,23.26
2023-05-19T03:09:09.534Z,23.26
2023-05-19T03:10:09.612Z,23.26
2023-05-19T03:11:09.665Z,23.25
2023-05-19T03:12:09.728Z,23.26
2023-05-19T03:13:09.798Z,23.26
2023-05-19T03:14:09.925Z,23.25
2023-05-19T03:15:09.912Z,23.26
2023-05-19T03:16:10.023Z,23.26
2023-05-19T03:17:10.165Z,23.26
2023-05-19T03:18:10.276Z,23.25
2023-05-19T03:19:10.244Z,23.26
2023-05-19T03:20:10.238Z,23.26
2023-05-19T03:21:10.317Z,23.26
2023-05-19T03:22:10.364Z,23.26
2023-05-19T03:23:10.427Z,23.26
2023-05-19T03:24:10.489Z,23.26
2023-05-19T03:25:10.553Z,23.25
2023-05-19T03:26:10.593Z,23.26
2023-05-19T03:27:10.651Z,23.25
2023-05-19T03:28:10.714Z,23.25
2023-05-19T03:29:10.784Z,23.25
2023-05-19T03:30:10.832Z,23.25
2023-05-19T03:31:10.899Z,23.25
2023-05-19T03:32:10.974Z,23.25
2023-05-19T03:33:11.199Z,23.25
2023-05-19T03:34:11.079Z,23.25
2023-05-19T03:35:11.162Z,23.25
2023-05-19T03:36:11.192Z,23.25
2023-05-19T03:37:11.256Z,23.25
2023-05-19T03:38:11.329Z,23.25
2023-05-19T03:39:11.483Z,23.25
2023-05-19T03:40:11.465Z,23.25
2023-05-19T03:41:11.506Z,23.25
2023-05-19T03:42:11.584Z,23.25
2023-05-19T03:43:11.632Z,23.25
2023-05-19T03:44:11.696Z,23.24
2023-05-19T03:45:11.749Z,23.25
2023-05-19T03:46:11.877Z,23.24
2023-05-19T03:47:11.883Z,23.25
2023-05-19T03:48:11.990Z,23.26
2023-05-19T03:49:12.024Z,23.24
2023-05-19T03:50:12.078Z,23.25
2023-05-19T03:51:12.130Z,23.25
2023-05-19T03:52:12.190Z,23.24
2023-05-19T03:53:12.247Z,23.24
2023-05-19T03:54:12.295Z,23.25
2023-05-19T03:55:12.366Z,23.25
2023-05-19T03:56:12.416Z,23.25
2023-05-19T03:57:12.495Z,23.25
2023-05-19T03:58:12.541Z,23.25
2023-05-19T03:59:12.600Z,23.25
2023-05-19T04:00:12.690Z,23.26
2023-05-19T04:01:12.838Z,23.25
2023-05-19T04:02:12.847Z,23.25
2023-05-19T04:03:13.020Z,23.25
2023-05-19T04:04:12.932Z,23.25
2023-05-19T04:05:12.980Z,23.25
2023-05-19T04:06:13.068Z,23.24
2023-05-19T04:07:13.091Z,23.25
2023-05-19T04:08:13.156Z,23.25
2023-05-19T04:09:13.222Z,23.25
2023-05-19T04:10:13.267Z,23.26
2023-05-19T04:11:13.338Z,23.25
2023-05-19T04:12:13.430Z,23.25
2023-05-19T04:13:13.461Z,23.26
2023-05-19T04:14:13.539Z,23.25
2023-05-19T04:15:13.637Z,23.26
2023-05-19T04:16:13.674Z,23.25
2023-05-19T04:17:13.719Z,23.26
2023-05-19T04:18:13.836Z,23.25
2023-05-19T04:19:13.894Z,23.26
2023-05-19T04:20:13.891Z,23.26
2023-05-19T04:21:13.986Z,23.26
2023-05-19T04:22:14.005Z,23.26
2023-05-19T04:23:14.173Z,23.26
2023-05-19T04:24:14.142Z,23.26
2023-05-19T04:25:14.205Z,23.26
2023-05-19T04:26:14.260Z,23.26
2023-05-19T04:27:14.317Z,23.26
2023-05-19T04:28:14.377Z,23.27
2023-05-19T04:29:14.451Z,23.26
2023-05-19T04:30:16.113Z,23.27
2023-05-19T04:31:14.542Z,23.26
2023-05-19T04:32:14.496Z,23.27
2023-05-19T04:33:14.474Z,23.26
2023-05-19T04:34:14.488Z,23.27
2023-05-19T04:35:14.477Z,23.27
2023-05-19T04:36:14.481Z,23.27
2023-05-19T04:37:14.449Z,23.27
2023-05-19T04:38:14.466Z,23.27
2023-05-19T04:39:14.448Z,23.27
2023-05-19T04:40:14.454Z,23.27
2023-05-19T04:41:14.446Z,23.28
2023-05-19T04:42:14.416Z,23.28
2023-05-19T04:43:14.423Z,23.28
2023-05-19T04:44:14.425Z,23.28
2023-05-19T04:45:14.399Z,23.28
2023-05-19T04:46:14.560Z,23.29
2023-05-19T04:47:14.406Z,23.29
2023-05-19T04:48:14.383Z,23.29
2023-05-19T04:49:14.364Z,23.30
2023-05-19T04:50:14.355Z,23.30
2023-05-19T04:51:14.516Z,23.30
2023-05-19T04:52:14.346Z,23.32
2023-05-19T04:53:14.335Z,23.34
2023-05-19T04:54:14.355Z,23.37
2023-05-19T04:55:14.327Z,23.38
2023-05-19T04:56:14.317Z,23.42
2023-05-19T04:57:14.316Z,23.45
2023-05-19T04:58:14.315Z,23.47
2023-05-19T04:59:14.304Z,23.49
2023-05-19T05:00:14.299Z,23.50
2023-05-19T05:01:14.300Z,23.50
2023-05-19T05:02:14.404Z,23.50
2023-05-19T05:03:14.348Z,23.49
2023-05-19T05:04:14.319Z,23.49
2023-05-19T05:05:14.252Z,23.49
2023-05-19T05:06:14.350Z,23.48
2023-05-19T05:07:14.244Z,23.49
2023-05-19T05:08:14.342Z,23.49
2023-05-19T05:09:14.231Z,23.49
2023-05-19T05:10:14.238Z,23.49
2023-05-19T05:11:14.312Z,23.49
2023-05-19T05:12:14.341Z,23.48
2023-05-19T05:13:14.387Z,23.49
2023-05-19T05:14:14.418Z,23.48
2023-05-19T05:15:14.513Z,23.48
2023-05-19T05:16:14.586Z,23.48
2023-05-19T05:17:14.573Z,23.48
2023-05-19T05:18:14.593Z,23.48
2023-05-19T05:19:14.725Z,23.48
2023-05-19T05:20:14.691Z,23.47
2023-05-19T05:21:14.751Z,23.48
2023-05-19T05:22:14.913Z,23.47
2023-05-19T05:23:14.844Z,23.48
2023-05-19T05:24:14.870Z,23.47
2023-05-19T05:25:14.900Z,23.46
2023-05-19T05:26:14.968Z,23.47
2023-05-19T05:27:14.994Z,23.47
2023-05-19T05:28:15.044Z,23.47
2023-05-19T05:29:15.089Z,23.47
2023-05-19T05:30:15.240Z,23.46
2023-05-19T05:31:15.204Z,23.47
2023-05-19T05:32:15.247Z,23.46
2023-05-19T05:33:15.394Z,23.47
2023-05-19T05:34:15.344Z,23.47
2023-05-19T05:35:15.387Z,23.47
2023-05-19T05:36:15.438Z,23.47
2023-05-19T05:37:15.549Z,23.47
2023-05-19T05:38:15.520Z,23.49
2023-05-19T05:39:15.584Z,23.49
2023-05-19T05:40:15.606Z,23.50
2023-05-19T05:41:15.662Z,23.50
2023-05-19T05:42:15.706Z,23.51
2023-05-19T05:43:15.746Z,23.51
2023-05-19T05:44:15.783Z,23.51
2023-05-19T05:45:15.848Z,23.52
2023-05-19T05:46:15.919Z,23.52
2023-05-19T05:47:15.934Z,23.52
2023-05-19T05:48:16.068Z,23.53
2023-05-19T05:49:16.015Z,23.53
2023-05-19T05:50:16.057Z,23.53
2023-05-19T05:51:16.088Z,23.54
2023-05-19T05:52:16.124Z,23.56
2023-05-19T05:53:16.250Z,23.55
2023-05-19T05:54:16.223Z,23.55
2023-05-19T05:55:16.261Z,23.55
2023-05-19T05:56:16.282Z,23.56
2023-05-19T05:57:16.331Z,23.57
2023-05-19T05:58:16.373Z,23.58
2023-05-19T05:59:16.396Z,23.58
2023-05-19T06:00:16.450Z,23.59
2023-05-19T06:01:16.469Z,23.59
2023-05-19T06:02:16.539Z,23.58
2023-05-19T06:03:16.596Z,23.58
2023-05-19T06:04:16.613Z,23.59
2023-05-19T06:05:16.690Z,23.59
2023-05-19T06:06:16.676Z,23.60
2023-05-19T06:07:16.724Z,23.59
2023-05-19T06:08:16.765Z,23.59
2023-05-19T06:09:16.780Z,23.59
2023-05-19T06:10:16.830Z,23.59
2023-05-19T06:11:16.855Z,23.59
2023-05-19T06:12:16.899Z,23.59
2023-05-19T06:13:16.967Z,23.59
2023-05-19T06:14:16.979Z,23.60
2023-05-19T06:15:17.111Z,23.60
2023-05-19T06:16:17.164Z,23.60
2023-05-19T06:17:17.110Z,23.60
2023-05-19T06:18:17.134Z,23.61
2023-05-19T06:19:17.214Z,23.62
2023-05-19T06:20:17.208Z,23.63
2023-05-19T06:21:17.246Z,23.63
2023-05-19T06:22:17.265Z,23.64
2023-05-19T06:23:17.298Z,23.64
2023-05-19T06:24:17.326Z,23.65
2023-05-19T06:25:17.381Z,23.66
2023-05-19T06:26:17.421Z,23.66
2023-05-19T06:27:17.436Z,23.66
2023-05-19T06:28:17.476Z,23.66
2023-05-19T06:29:17.515Z,23.66
2023-05-19T06:30:17.549Z,23.67
2023-05-19T06:31:17.630Z,23.66
2023-05-19T06:32:17.607Z,23.67
2023-05-19T06:33:17.631Z,23.67
2023-05-19T06:34:17.721Z,23.67
2023-05-19T06:35:17.681Z,23.67
2023-05-19T06:36:17.731Z,23.68
2023-05-19T06:37:17.854Z,23.68
2023-05-19T06:38:17.798Z,23.69
2023-05-19T06:39:17.811Z,23.68
2023-05-19T06:40:17.856Z,23.68
2023-05-19T06:41:17.887Z,23.69
2023-05-19T06:42:17.922Z,23.70
2023-05-19T06:43:17.936Z,23.71
2023-05-19T06:44:20.450Z,23.72
2023-05-19T06:45:17.973Z,23.72
2023-05-19T06:46:18.072Z,23.72
2023-05-19T06:47:17.959Z,23.73
2023-05-19T06:48:18.015Z,23.73
2023-05-19T06:49:17.929Z,23.74
2023-05-19T06:50:17.926Z,23.73
2023-05-19T06:51:17.930Z,23.75
2023-05-19T06:52:17.928Z,23.74
2023-05-19T06:53:17.923Z,23.73
2023-05-19T06:54:17.903Z,23.75
2023-05-19T06:55:17.917Z,23.75
2023-05-19T06:56:17.901Z,23.75
2023-05-19T06:57:17.903Z,23.75
2023-05-19T06:58:17.890Z,23.75
2023-05-19T06:59:17.960Z,23.75
2023-05-19T07:00:19.365Z,23.75
2023-05-19T07:01:17.906Z,23.75
2023-05-19T07:02:17.905Z,23.75
2023-05-19T07:03:18.029Z,23.75
2023-05-19T07:04:17.826Z,23.75
2023-05-19T07:05:17.825Z,23.75
2023-05-19T07:06:17.829Z,23.76
2023-05-19T07:07:17.818Z,23.75
2023-05-19T07:08:17.798Z,23.76
2023-05-19T07:09:17.794Z,23.76
2023-05-19T07:10:17.784Z,23.75
2023-05-19T07:11:17.785Z,23.76
2023-05-19T07:12:17.787Z,23.76
2023-05-19T07:13:17.769Z,23.77
2023-05-19T07:14:17.775Z,23.77
2023-05-19T07:15:17.768Z,23.77
2023-05-19T07:16:17.797Z,23.78
2023-05-19T07:17:17.739Z,23.78
2023-05-19T07:18:17.746Z,23.78
2023-05-19T07:19:17.764Z,23.78
2023-05-19T07:20:17.740Z,23.79
2023-05-19T07:21:17.806Z,23.79
2023-05-19T07:22:17.709Z,23.80
2023-05-19T07:23:17.706Z,23.80
2023-05-19T07:24:17.706Z,23.80
2023-05-19T07:25:17.703Z,23.81
2023-05-19T07:26:17.689Z,23.81
2023-05-19T07:27:17.686Z,23.81
2023-05-19T07:28:17.660Z,23.81
2023-05-19T07:29:17.656Z,23.81
2023-05-19T07:30:17.774Z,23.81
2023-05-19T07:31:17.743Z,23.82
2023-05-19T07:32:17.759Z,23.81
2023-05-19T07:33:17.647Z,23.82
2023-05-19T07:34:17.628Z,23.82
2023-05-19T07:35:17.632Z,23.83
2023-05-19T07:36:17.627Z,23.84
2023-05-19T07:37:17.616Z,23.84
2023-05-19T07:38:17.592Z,23.84
2023-05-19T07:39:17.666Z,23.85
2023-05-19T07:40:17.589Z,23.86
2023-05-19T07:41:17.584Z,23.85
2023-05-19T07:42:17.560Z,23.85
2023-05-19T07:43:17.576Z,23.86
2023-05-19T07:44:17.648Z,23.87
2023-05-19T07:45:17.549Z,23.87
2023-05-19T07:46:17.655Z,23.88
2023-05-19T07:47:17.530Z,23.88
2023-05-19T07:48:17.628Z,23.88
2023-05-19T07:49:17.513Z,23.89
2023-05-19T07:50:17.520Z,23.89
2023-05-19T07:51:17.505Z,23.90
2023-05-19T07:52:17.510Z,23.91
2023-05-19T07:53:17.497Z,23.92
2023-05-19T07:54:17.498Z,23.94
2023-05-19T07:55:17.500Z,23.94
2023-05-19T07:56:17.548Z,23.95
2023-05-19T07:57:17.558Z,23.95
2023-05-19T07:58:17.578Z,23.96
2023-05-19T07:59:17.616Z,23.96
2023-05-19T08:00:17.636Z,23.96
2023-05-19T08:01:17.643Z,23.97
2023-05-19T08:02:17.681Z,23.97
2023-05-19T08:03:17.832Z,23.98
2023-05-19T08:04:17.857Z,23.99
2023-05-19T08:05:17.733Z,24.00
2023-05-19T08:06:17.839Z,24.00
2023-05-19T08:07:17.777Z,24.01
2023-05-19T08:08:17.793Z,24.03
2023-05-19T08:09:17.826Z,24.02
2023-05-19T08:10:17.864Z,24.03
2023-05-19T08:11:17.848Z,24.05
2023-05-19T08:12:17.865Z,24.06
2023-05-19T08:13:17.882Z,24.07
2023-05-19T08:14:17.938Z,24.08
2023-05-19T08:15:17.922Z,24.09
2023-05-19T08:16:17.968Z,24.10
2023-05-19T08:17:17.940Z,24.10
2023-05-19T08:18:17.981Z,24.11
2023-05-19T08:19:18.064Z,24.11
2023-05-19T08:20:18.007Z,24.12
2023-05-19T08:21:18.006Z,24.13
2023-05-19T08:22:18.011Z,24.14
2023-05-19T08:23:18.032Z,24.14
2023-05-19T08:24:18.019Z,24.14
2023-05-19T08:25:18.050Z,24.14
2023-05-19T08:26:18.052Z,24.13
2023-05-19T08:27:18.081Z,24.14
2023-05-19T08:28:18.156Z,24.13
2023-05-19T08:29:18.087Z,24.12
2023-05-19T08:30:18.103Z,24.13
2023-05-19T08:31:18.131Z,24.12
2023-05-19T08:32:18.125Z,24.12
2023-05-19T08:33:18.134Z,24.11
2023-05-19T08:34:18.231Z,24.11
2023-05-19T08:35:18.165Z,24.11
2023-05-19T08:36:18.158Z,24.11
2023-05-19T08:37:18.180Z,24.11
2023-05-19T08:38:18.185Z,24.11
2023-05-19T08:39:18.188Z,24.11
2023-05-19T08:40:18.225Z,24.11
2023-05-19T08:41:18.241Z,24.11
2023-05-19T08:42:18.242Z,24.12
2023-05-19T08:43:18.257Z,24.11
2023-05-19T08:44:19.108Z,24.12
2023-05-19T08:45:18.266Z,24.12
2023-05-19T08:46:18.330Z,24.12
2023-05-19T08:47:18.303Z,24.13
2023-05-19T08:48:18.299Z,24.12
2023-05-19T08:49:18.323Z,24.13
2023-05-19T08:50:18.416Z,24.13
2023-05-19T08:51:18.349Z,24.13
2023-05-19T08:52:18.349Z,24.14
2023-05-19T08:53:31.837Z,24.14
2023-05-19T08:54:19.334Z,24.14
2023-05-19T08:55:18.345Z,24.14
2023-05-19T08:56:18.330Z,24.15
2023-05-19T08:57:18.320Z,24.15
2023-05-19T08:58:18.317Z,24.15
2023-05-19T08:59:18.313Z,24.16
2023-05-19T09:00:18.285Z,24.16
2023-05-19T09:01:18.331Z,24.16
2023-05-19T09:02:18.287Z,24.17
2023-05-19T09:03:23.406Z,24.17
2023-05-19T09:04:19.301Z,24.17
2023-05-19T09:05:18.308Z,24.17
2023-05-19T09:06:18.255Z,24.17
2023-05-19T09:07:18.238Z,24.18
2023-05-19T09:08:18.230Z,24.18
2023-05-19T09:09:18.224Z,24.20
2023-05-19T09:10:18.208Z,24.20
2023-05-19T09:11:18.212Z,24.20
2023-05-19T09:12:18.306Z,24.20
2023-05-19T09:13:18.187Z,24.21
2023-05-19T09:14:18.200Z,24.21
2023-05-19T09:15:18.186Z,24.21
2023-05-19T09:16:18.206Z,24.21
2023-05-19T09:17:18.164Z,24.22
2023-05-19T09:18:18.163Z,24.22
2023-05-19T09:19:18.222Z,24.21
2023-05-19T09:20:18.144Z,24.21
2023-05-19T09:21:18.132Z,24.20
2023-05-19T09:22:18.203Z,24.22
2023-05-19T09:23:18.119Z,24.22
2023-05-19T09:24:18.166Z,24.21
2023-05-19T09:25:18.146Z,24.21
2023-05-19T09:26:18.123Z,24.21
2023-05-19T09:27:18.118Z,24.21
2023-05-19T09:28:18.101Z,24.22
2023-05-19T09:29:18.107Z,24.22
2023-05-19T09:30:18.101Z,24.22
2023-05-19T09:31:18.082Z,24.23
2023-05-19T09:32:18.124Z,24.23
2023-05-19T09:33:18.067Z,24.22
2023-05-19T09:34:18.045Z,24.23
2023-05-19T09:35:18.051Z,24.23
2023-05-19T09:36:18.052Z,24.22
2023-05-19T09:37:18.051Z,24.22
2023-05-19T09:38:18.114Z,24.23
2023-05-19T09:39:18.026Z,24.22
2023-05-19T09:40:18.051Z,24.22
2023-05-19T09:41:17.998Z,24.22
2023-05-19T09:42:18.000Z,24.22
2023-05-19T09:43:17.980Z,24.22
2023-05-19T09:44:17.987Z,24.22
2023-05-19T09:45:17.979Z,24.22
2023-05-19T09:46:17.978Z,24.23
2023-05-19T09:47:17.947Z,24.24
2023-05-19T09:48:17.962Z,24.24
2023-05-19T09:49:17.941Z,24.24
2023-05-19T09:50:17.999Z,24.24
2023-05-19T09:51:17.951Z,24.25
2023-05-19T09:52:17.973Z,24.27
2023-05-19T09:53:17.949Z,24.26
2023-05-19T09:54:17.941Z,24.26
2023-05-19T09:55:17.946Z,24.26
2023-05-19T09:56:17.940Z,24.26
2023-05-19T09:57:17.952Z,24.25
2023-05-19T09:58:17.932Z,24.25
2023-05-19T09:59:17.925Z,24.25
2023-05-19T10:00:18.017Z,24.26
2023-05-19T10:01:17.953Z,24.25
2023-05-19T10:02:17.923Z,24.26
2023-05-19T10:03:17.914Z,24.25
2023-05-19T10:04:17.904Z,24.25
2023-05-19T10:05:18.030Z,24.26
2023-05-19T10:06:17.909Z,24.25
2023-05-19T10:07:17.942Z,24.26
2023-05-19T10:08:17.903Z,24.25
2023-05-19T10:09:17.878Z,24.25
2023-05-19T10:10:17.890Z,24.25
2023-05-19T10:11:17.889Z,24.26
2023-05-19T10:12:17.875Z,24.26
2023-05-19T10:13:17.874Z,24.26
2023-05-19T10:14:17.889Z,24.26
2023-05-19T10:15:17.874Z,24.25
2023-05-19T10:16:17.876Z,24.26
2023-05-19T10:17:17.878Z,24.26
2023-05-19T10:18:17.857Z,24.26
2023-05-19T10:19:17.906Z,24.26
2023-05-19T10:20:17.856Z,24.26
2023-05-19T10:21:17.845Z,24.27
2023-05-19T10:22:17.846Z,24.26
2023-05-19T10:23:17.849Z,24.26
2023-05-19T10:24:17.838Z,24.27
2023-05-19T10:25:17.840Z,24.27
2023-05-19T10:26:17.812Z,24.26
2023-05-19T10:27:17.814Z,24.27
2023-05-19T10:28:17.807Z,24.27
2023-05-19T10:29:17.801Z,24.27
2023-05-19T10:30:17.830Z,24.27
2023-05-19T10:31:17.811Z,24.27
2023-05-19T10:32:17.871Z,24.27
2023-05-19T10:33:17.862Z,24.28
2023-05-19T10:34:17.798Z,24.28
2023-05-19T10:35:17.792Z,24.28
2023-05-19T10:36:17.802Z,24.27
2023-05-19T10:37:17.790Z,24.27
2023-05-19T10:38:17.790Z,24.28
2023-05-19T10:39:17.790Z,24.27
2023-05-19T10:40:17.775Z,24.28
2023-05-19T10:41:17.780Z,24.28
2023-05-19T10:42:17.783Z,24.27
2023-05-19T10:43:17.775Z,24.27
2023-05-19T10:44:17.762Z,24.28
2023-05-19T10:45:17.759Z,24.27
2023-05-19T10:46:17.839Z,24.28
2023-05-19T10:47:17.866Z,24.28
2023-05-19T10:48:17.809Z,24.27
2023-05-19T10:49:17.767Z,24.28
2023-05-19T10:50:17.767Z,24.28
2023-05-19T10:51:17.761Z,24.28
2023-05-19T10:52:17.798Z,24.28
2023-05-19T10:53:17.757Z,24.28
2023-05-19T10:54:17.760Z,24.28
2023-05-19T10:55:17.969Z,24.28
2023-05-19T10:56:17.770Z,24.28
2023-05-19T10:57:17.798Z,24.28
2023-05-19T10:58:17.765Z,24.29
2023-05-19T10:59:17.767Z,24.29
2023-05-19T11:00:17.763Z,24.28
2023-05-19T11:01:17.809Z,24.29
2023-05-19T11:02:17.786Z,24.30
2023-05-19T11:03:17.747Z,24.29
2023-05-19T11:04:17.768Z,24.30
2023-05-19T11:05:17.755Z,24.30
2023-05-19T11:06:17.754Z,24.30
2023-05-19T11:07:17.757Z,24.30
2023-05-19T11:08:17.731Z,24.30
2023-05-19T11:09:17.949Z,24.30
2023-05-19T11:10:17.722Z,24.31
2023-05-19T11:11:17.736Z,24.31
2023-05-19T11:12:17.723Z,24.31
2023-05-19T11:13:17.727Z,24.31
2023-05-19T11:14:17.719Z,24.32
2023-05-19T11:15:17.736Z,24.32
2023-05-19T11:16:17.730Z,24.32
2023-05-19T11:17:17.695Z,24.32
2023-05-19T11:18:17.711Z,24.32
2023-05-19T11:19:17.753Z,24.33
2023-05-19T11:20:17.705Z,24.33
2023-05-19T11:21:17.721Z,24.33
2023-05-19T11:22:17.713Z,24.32
2023-05-19T11:23:17.722Z,24.32
2023-05-19T11:24:17.693Z,24.32
2023-05-19T11:25:17.681Z,24.32
2023-05-19T11:26:17.666Z,24.32
2023-05-19T11:27:17.684Z,24.32
2023-05-19T11:28:17.682Z,24.32
2023-05-19T11:29:17.678Z,24.32
2023-05-19T11:30:17.778Z,24.32
2023-05-19T11:31:17.668Z,24.33
2023-05-19T11:32:17.774Z,24.32
2023-05-19T11:33:17.708Z,24.33
2023-05-19T11:34:17.650Z,24.32
2023-05-19T11:35:17.648Z,24.33
2023-05-19T11:36:17.673Z,24.34
2023-05-19T11:37:17.654Z,24.33
2023-05-19T11:38:17.654Z,24.33
2023-05-19T11:39:17.658Z,24.34
2023-05-19T11:40:17.651Z,24.33
2023-05-19T11:41:20.137Z,24.33
2023-05-19T11:42:17.630Z,24.33
2023-05-19T11:43:17.630Z,24.33
2023-05-19T11:44:17.620Z,24.33
2023-05-19T11:45:17.602Z,24.33
2023-05-19T11:46:17.643Z,24.33
2023-05-19T11:47:17.602Z,24.33
2023-05-19T11:48:17.650Z,24.33
2023-05-19T11:49:17.585Z,24.33
2023-05-19T11:50:17.572Z,24.33
2023-05-19T11:51:17.555Z,24.34
2023-05-19T11:52:17.569Z,24.33
2023-05-19T11:53:17.549Z,24.33
2023-05-19T11:54:17.545Z,24.33
2023-05-19T11:55:17.524Z,24.33
2023-05-19T11:56:17.533Z,24.32
2023-05-19T11:57:17.527Z,24.32
2023-05-19T11:58:17.634Z,24.32
2023-05-19T11:59:17.492Z,24.33
2023-05-19T12:00:17.482Z,24.32
2023-05-19T12:01:17.476Z,24.33
2023-05-19T12:02:17.545Z,24.33
2023-05-19T12:03:17.765Z,24.33
2023-05-19T12:04:17.467Z,24.33
2023-05-19T12:05:17.515Z,24.33
2023-05-19T12:06:17.565Z,24.32
2023-05-19T12:07:17.446Z,24.33
2023-05-19T12:09:17.434Z,24.33
2023-05-19T12:10:17.420Z,24.33
2023-05-19T12:11:18.175Z,24.33
2023-05-19T12:12:17.452Z,24.32
2023-05-19T12:13:17.382Z,24.33
2023-05-19T12:14:17.386Z,24.33
2023-05-19T12:15:17.369Z,24.33
2023-05-19T12:16:17.404Z,24.33
2023-05-19T12:17:17.353Z,24.34
2023-05-19T12:18:17.355Z,24.35
2023-05-19T12:19:17.406Z,24.34
2023-05-19T12:20:17.345Z,24.35
2023-05-19T12:21:17.335Z,24.35
2023-05-19T12:22:17.363Z,24.34
2023-05-19T12:23:17.315Z,24.35
2023-05-19T12:24:17.295Z,24.35
2023-05-19T12:25:17.301Z,24.35
2023-05-19T12:26:17.301Z,24.35
2023-05-19T12:27:17.299Z,24.35
2023-05-19T12:28:17.284Z,24.35
2023-05-19T12:29:17.267Z,24.35
2023-05-19T12:30:17.271Z,24.35
2023-05-19T12:31:17.285Z,24.35
2023-05-19T12:32:17.260Z,24.35
2023-05-19T12:33:17.251Z,24.36
2023-05-19T12:34:17.228Z,24.36
2023-05-19T12:35:17.234Z,24.36
2023-05-19T12:36:17.211Z,24.36
2023-05-19T12:37:17.210Z,24.37
2023-05-19T12:38:17.212Z,24.36
2023-05-19T12:39:17.696Z,24.36
2023-05-19T12:40:17.179Z,24.37
2023-05-19T12:41:17.183Z,24.37
2023-05-19T12:42:17.192Z,24.37
2023-05-19T12:43:17.166Z,24.37
2023-05-19T12:44:17.167Z,24.37
2023-05-19T12:45:17.164Z,24.37
2023-05-19T12:46:17.161Z,24.38
2023-05-19T12:47:17.157Z,24.37
2023-05-19T12:48:17.179Z,24.37
2023-05-19T12:49:17.132Z,24.37
2023-05-19T12:50:17.146Z,24.37
2023-05-19T12:51:17.119Z,24.38
2023-05-19T12:52:17.095Z,24.38
2023-05-19T12:53:17.095Z,24.38